Time;durP1;ratioP1;P1;durP2;ratioP2;P2;SDS_P1;SDS_P2;PMS_P1;PMS_P2;Temp;Humidity;BMP_temperature;BMP_pressure;BME280_temperature;BME280_humidity;BME280_pressure;Samples;Min_cycle;Max_cycle;Signal;HPM_P1;HPM_P2
2022/10/31 00:02:17;;;;;;;10.93;5.03;;;;;;;10.69;100.00;96729.63;5028050;28;20060;-77
2022/10/31 00:04:42;;;;;;;11.70;4.33;;;;;;;10.63;100.00;96732.88;5011714;28;20909;-77
2022/10/31 00:07:08;;;;;;;13.50;4.23;;;;;;;10.62;100.00;96737.28;5013236;28;20037;-77
2022/10/31 00:09:33;;;;;;;15.73;4.87;;;;;;;10.78;100.00;96735.81;5023321;28;20049;-77
2022/10/31 00:11:59;;;;;;;9.60;4.53;;;;;;;10.70;100.00;96733.94;5032778;28;20576;-77
2022/10/31 00:14:25;;;;;;;14.33;5.30;;;;;;;10.72;100.00;96736.41;5028869;28;20052;-77
2022/10/31 00:16:50;;;;;;;10.77;4.77;;;;;;;10.75;100.00;96733.50;5024628;28;20038;-77
2022/10/31 00:19:16;;;;;;;9.53;4.40;;;;;;;10.80;100.00;96729.44;5020561;28;20594;-77
2022/10/31 00:21:42;;;;;;;9.93;4.53;;;;;;;10.79;100.00;96725.13;5022112;28;20041;-77
2022/10/31 00:24:07;;;;;;;12.27;4.70;;;;;;;10.78;100.00;96731.38;5025567;28;20115;-77
2022/10/31 00:26:34;;;;;;;15.23;5.00;;;;;;;10.82;100.00;96729.28;5024753;28;20065;-76
2022/10/31 00:29:00;;;;;;;12.57;4.40;;;;;;;10.72;100.00;96728.53;5022279;28;20041;-77
2022/10/31 00:31:26;;;;;;;11.57;5.17;;;;;;;10.65;100.00;96733.53;5025829;28;20034;-78
2022/10/31 00:33:52;;;;;;;18.37;5.60;;;;;;;10.57;100.00;96736.09;5024090;28;20392;-77
2022/10/31 00:36:19;;;;;;;15.13;5.43;;;;;;;10.58;100.00;96735.94;5026093;28;20032;-77
2022/10/31 00:38:46;;;;;;;11.80;5.77;;;;;;;10.56;100.00;96731.78;5023361;28;20033;-76
2022/10/31 00:41:14;;;;;;;12.37;5.00;;;;;;;10.64;100.00;96728.44;5023101;28;20037;-77
2022/10/31 00:43:41;;;;;;;11.57;4.20;;;;;;;10.69;100.00;96731.44;5021652;28;20143;-77
2022/10/31 00:46:06;;;;;;;14.60;4.40;;;;;;;10.75;100.00;96729.06;5024200;28;20699;-77
2022/10/31 00:48:32;;;;;;;13.47;4.67;;;;;;;10.90;100.00;96731.16;5027643;28;20018;-77
2022/10/31 00:50:58;;;;;;;9.37;4.20;;;;;;;10.99;100.00;96727.66;5034265;28;20057;-77
2022/10/31 00:53:24;;;;;;;13.77;3.90;;;;;;;11.17;100.00;96722.41;5029019;28;20045;-78
2022/10/31 00:55:50;;;;;;;15.77;4.70;;;;;;;11.28;100.00;96724.78;5013732;28;20033;-77
2022/10/31 00:58:16;;;;;;;14.03;4.40;;;;;;;11.32;100.00;96726.13;5022918;28;20034;-77
2022/10/31 01:00:43;;;;;;;14.67;4.40;;;;;;;11.35;100.00;96725.84;5015704;28;20492;-77
2022/10/31 01:03:09;;;;;;;11.50;4.43;;;;;;;11.37;100.00;96723.91;5036907;28;20033;-77
2022/10/31 01:05:38;;;;;;;10.03;4.47;;;;;;;11.14;100.00;96727.97;5015536;28;20033;-77
2022/10/31 01:08:04;;;;;;;10.63;4.23;;;;;;;11.12;100.00;96727.28;5032451;28;20091;-77
2022/10/31 01:10:30;;;;;;;8.20;3.57;;;;;;;10.98;100.00;96718.09;5015244;28;20034;-77
2022/10/31 01:12:55;;;;;;;14.47;4.60;;;;;;;10.94;100.00;96727.28;5018779;28;20164;-77
2022/10/31 01:15:22;;;;;;;9.27;4.50;;;;;;;10.92;100.00;96718.69;5019938;28;20026;-77
2022/10/31 01:17:49;;;;;;;12.00;4.57;;;;;;;10.87;100.00;96719.16;5022785;28;20490;-77
2022/10/31 01:20:15;;;;;;;12.07;4.23;;;;;;;10.81;100.00;96717.94;5023255;28;20026;-77
2022/10/31 01:22:41;;;;;;;10.83;6.00;;;;;;;10.75;100.00;96712.44;5023802;28;20025;-77
2022/10/31 01:25:09;;;;;;;14.67;5.27;;;;;;;10.61;100.00;96721.66;5023380;28;20214;-77
2022/10/31 01:27:34;;;;;;;8.70;4.20;;;;;;;10.71;100.00;96719.81;5021265;28;20502;-77
2022/10/31 01:30:00;;;;;;;10.17;4.50;;;;;;;10.68;100.00;96722.72;5020672;28;20029;-77
2022/10/31 01:32:28;;;;;;;11.77;5.00;;;;;;;10.55;100.00;96723.06;5024679;28;20037;-77
2022/10/31 01:34:54;;;;;;;9.33;3.80;;;;;;;10.59;100.00;96724.44;5021485;28;20179;-77
2022/10/31 01:37:20;;;;;;;14.47;5.17;;;;;;;10.61;100.00;96719.84;5021045;28;20112;-77
2022/10/31 01:39:48;;;;;;;9.50;4.53;;;;;;;10.59;100.00;96716.53;5022655;28;20196;-77
2022/10/31 01:42:22;;;;;;;12.97;4.77;;;;;;;10.55;100.00;96709.91;5022141;28;20034;-77
2022/10/31 01:44:55;;;;;;;8.87;4.33;;;;;;;10.55;100.00;96717.81;5022974;28;20076;-77
2022/10/31 01:47:33;;;;;;;14.77;5.18;;;;;;;10.57;100.00;96721.13;5026580;28;20026;-77
2022/10/31 01:50:02;;;;;;;15.00;4.47;;;;;;;10.52;100.00;96712.03;5015489;28;20920;-77
2022/10/31 01:52:36;;;;;;;13.83;5.20;;;;;;;10.48;100.00;96711.50;5016470;28;20069;-77
2022/10/31 01:55:13;;;;;;;12.17;4.30;;;;;;;10.34;100.00;96709.34;5029491;28;20119;-77
2022/10/31 01:57:44;;;;;;;15.13;6.90;;;;;;;10.34;100.00;96712.00;5015436;28;20403;-77
2022/10/31 02:00:11;;;;;;;11.90;4.20;;;;;;;10.46;100.00;96715.22;5021439;28;20053;-77
2022/10/31 02:02:41;;;;;;;18.07;5.03;;;;;;;10.44;100.00;96710.13;5019572;28;20073;-77
2022/10/31 02:05:12;;;;;;;11.83;4.70;;;;;;;10.37;100.00;96709.06;5012383;28;20022;-77
2022/10/31 02:08:07;;;;;;;15.30;5.13;;;;;;;10.19;100.00;96708.13;5043503;28;20471;-78
2022/10/31 02:10:36;;;;;;;12.27;4.03;;;;;;;10.09;100.00;96698.53;5035583;28;20029;-78
2022/10/31 02:13:05;;;;;;;14.40;4.90;;;;;;;10.25;100.00;96700.50;5024614;28;20410;-77
2022/10/31 02:15:32;;;;;;;11.80;4.67;;;;;;;10.18;100.00;96693.34;5023846;28;20052;-77
2022/10/31 02:17:58;;;;;;;11.73;4.17;;;;;;;10.22;100.00;96700.78;5029212;28;20053;-77
2022/10/31 02:20:30;;;;;;;12.87;4.40;;;;;;;10.23;100.00;96702.47;5022429;28;20053;-77
2022/10/31 02:23:17;;;;;;;13.27;4.57;;;;;;;10.22;100.00;96692.09;5020789;28;20121;-77
2022/10/31 02:26:30;;;;;;;13.17;4.50;;;;;;;10.18;100.00;96694.19;5036067;28;20030;-77
2022/10/31 02:29:31;;;;;;;11.20;4.83;;;;;;;10.01;100.00;96693.13;4991341;28;20579;-77
2022/10/31 02:32:11;;;;;;;13.70;5.80;;;;;;;9.94;100.00;96692.06;5034492;28;20121;-77
2022/10/31 02:34:52;;;;;;;14.33;4.43;;;;;;;9.82;100.00;96694.03;5027813;28;20123;-77
2022/10/31 02:37:34;;;;;;;11.60;4.50;;;;;;;9.93;100.00;96694.84;5011591;28;20026;-77
2022/10/31 02:40:05;;;;;;;11.20;3.57;;;;;;;10.00;100.00;96695.94;5023233;28;20033;-77
2022/10/31 02:43:00;;;;;;;13.17;5.60;;;;;;;9.93;100.00;96695.69;5019671;28;20034;-77
2022/10/31 02:45:35;;;;;;;15.77;4.43;;;;;;;9.89;100.00;96694.28;5033465;28;20030;-77
2022/10/31 02:48:10;;;;;;;11.03;5.07;;;;;;;9.88;100.00;96692.63;5027696;28;20029;-77
2022/10/31 02:50:42;;;;;;;14.70;4.60;;;;;;;9.77;100.00;96695.44;5040440;28;20041;-77
2022/10/31 02:53:09;;;;;;;11.67;4.43;;;;;;;9.80;100.00;96697.78;5015161;28;20384;-77
2022/10/31 02:55:34;;;;;;;9.90;3.97;;;;;;;9.81;100.00;96692.38;5009980;28;20480;-77
2022/10/31 02:58:11;;;;;;;11.87;4.97;;;;;;;9.85;100.00;96693.75;5015275;28;20827;-77
2022/10/31 03:01:01;;;;;;;12.60;4.23;;;;;;;9.87;100.00;96694.44;5024140;28;20030;-76
2022/10/31 03:03:42;;;;;;;10.90;4.57;;;;;;;9.87;100.00;96691.00;5025567;28;20041;-77
2022/10/31 03:06:32;;;;;;;10.63;3.93;;;;;;;9.84;100.00;96697.34;5022310;28;20034;-77
2022/10/31 03:09:21;;;;;;;14.67;4.70;;;;;;;9.86;100.00;96689.34;5030338;28;20034;-77
2022/10/31 03:12:04;;;;;;;10.07;4.17;;;;;;;9.90;100.00;96690.69;5041372;28;20029;-76
2022/10/31 03:14:41;;;;;;;8.00;3.70;;;;;;;9.93;100.00;96692.22;5026857;28;20049;-77
2022/10/31 03:17:17;;;;;;;11.43;4.80;;;;;;;9.90;100.00;96690.69;5024287;28;20026;-77
2022/10/31 03:19:47;;;;;;;12.10;4.57;;;;;;;9.93;100.00;96686.97;5028611;28;20040;-77
2022/10/31 03:22:20;;;;;;;14.47;5.67;;;;;;;9.89;100.00;96692.50;5026952;28;20033;-77
2022/10/31 03:24:50;;;;;;;14.85;4.53;;;;;;;9.86;100.00;96689.34;5031303;28;20038;-77
2022/10/31 03:27:22;;;;;;;11.30;4.00;;;;;;;9.85;100.00;96698.16;5009299;28;20194;-76
2022/10/31 03:29:53;;;;;;;9.17;3.83;;;;;;;9.86;100.00;96695.41;5026037;28;20865;-76
2022/10/31 03:32:48;;;;;;;9.70;4.17;;;;;;;9.83;100.00;96694.88;5030665;28;20084;-76
2022/10/31 03:35:19;;;;;;;9.97;3.50;;;;;;;9.80;100.00;96692.53;5014555;28;20041;-76
2022/10/31 03:37:46;;;;;;;10.77;4.30;;;;;;;9.76;100.00;96699.88;5015718;28;20099;-76
2022/10/31 03:40:16;;;;;;;18.00;5.10;;;;;;;9.74;100.00;96695.72;5031711;28;20037;-77
2022/10/31 03:42:51;;;;;;;13.83;5.50;;;;;;;9.73;100.00;96700.16;5029687;28;20061;-76
2022/10/31 03:45:27;;;;;;;13.13;4.40;;;;;;;9.76;100.00;96699.88;5037696;28;20410;-77
2022/10/31 03:47:54;;;;;;;15.80;5.77;;;;;;;9.76;100.00;96696.41;5027066;28;20400;-77
2022/10/31 03:50:21;;;;;;;10.97;4.20;;;;;;;9.74;100.00;96693.94;5006796;28;20156;-77
2022/10/31 03:52:58;;;;;;;12.87;4.33;;;;;;;9.74;100.00;96700.97;5025696;28;20048;-77
2022/10/31 03:55:42;;;;;;;11.07;4.70;;;;;;;9.75;100.00;96700.00;5019886;28;20073;-77
2022/10/31 03:58:18;;;;;;;10.27;4.23;;;;;;;9.65;100.00;96702.66;5035669;28;20072;-77
2022/10/31 04:00:45;;;;;;;14.60;4.73;;;;;;;9.65;100.00;96703.47;5027818;28;20067;-77
2022/10/31 04:03:17;;;;;;;14.70;4.77;;;;;;;9.57;100.00;96698.13;5000074;28;20384;-77
2022/10/31 04:05:48;;;;;;;13.07;4.70;;;;;;;9.55;100.00;96697.41;5032924;28;20030;-77
2022/10/31 04:08:19;;;;;;;12.27;4.47;;;;;;;9.55;100.00;96705.28;5032980;28;20037;-77
2022/10/31 04:10:49;;;;;;;13.97;5.63;;;;;;;9.52;100.00;96702.94;5032890;28;20048;-77
2022/10/31 04:13:20;;;;;;;15.80;4.67;;;;;;;9.45;100.00;96705.31;5023483;28;20033;-77
2022/10/31 04:15:57;;;;;;;14.93;4.80;;;;;;;9.37;100.00;96705.19;5032101;28;20030;-77
2022/10/31 04:18:25;;;;;;;13.97;4.90;;;;;;;9.41;100.00;96703.13;5022709;28;20025;-77
2022/10/31 04:21:03;;;;;;;10.80;4.53;;;;;;;9.41;100.00;96705.75;5021186;28;20036;-77
2022/10/31 04:23:30;;;;;;;11.63;4.77;;;;;;;9.50;100.00;96710.16;5016587;28;20144;-77
2022/10/31 04:25:56;;;;;;;12.43;5.73;;;;;;;9.51;100.00;96701.31;5014335;28;20029;-77
2022/10/31 04:28:22;;;;;;;14.83;5.37;;;;;;;9.55;100.00;96704.47;5018403;28;20033;-76
2022/10/31 04:30:49;;;;;;;9.73;4.63;;;;;;;9.50;100.00;96701.44;5014405;28;20125;-77
2022/10/31 04:33:16;;;;;;;11.20;5.40;;;;;;;9.53;100.00;96693.31;5027893;28;20041;-77
2022/10/31 04:35:44;;;;;;;13.50;4.53;;;;;;;9.54;100.00;96694.94;5026148;28;20543;-77
2022/10/31 04:38:10;;;;;;;17.00;5.97;;;;;;;9.51;100.00;96695.22;5017606;28;20396;-77
2022/10/31 04:40:37;;;;;;;14.47;5.60;;;;;;;9.48;100.00;96696.31;5009815;28;20026;-77
2022/10/31 04:43:26;;;;;;;12.37;5.43;;;;;;;9.54;100.00;96698.41;5031521;28;20037;-76
2022/10/31 04:45:52;;;;;;;12.63;5.30;;;;;;;9.56;100.00;96696.47;5016963;28;20030;-77
2022/10/31 04:48:18;;;;;;;11.53;4.70;;;;;;;9.56;100.00;96693.03;5006575;28;20116;-77
2022/10/31 04:50:44;;;;;;;11.10;5.60;;;;;;;9.51;100.00;96693.41;5010016;28;20066;-78
2022/10/31 04:53:12;;;;;;;10.37;4.73;;;;;;;9.41;100.00;96696.06;5020011;28;20022;-77
2022/10/31 04:56:00;;;;;;;11.77;4.93;;;;;;;9.38;100.00;96690.25;5012735;28;20057;-77
2022/10/31 04:58:33;;;;;;;11.03;4.83;;;;;;;9.34;100.00;96694.97;5025620;28;20038;-77
2022/10/31 05:00:59;;;;;;;11.20;5.63;;;;;;;9.29;100.00;96691.09;5014802;28;20181;-76
2022/10/31 05:03:25;;;;;;;13.97;5.87;;;;;;;9.29;100.00;96688.47;5023914;28;20060;-77
2022/10/31 05:05:51;;;;;;;16.27;6.27;;;;;;;9.30;100.00;96684.91;5028241;28;20526;-77
2022/10/31 05:08:16;;;;;;;14.40;6.57;;;;;;;9.29;100.00;96684.09;5011981;28;20037;-77
2022/10/31 05:10:42;;;;;;;13.67;6.87;;;;;;;9.25;100.00;96689.72;5011290;28;20034;-76
2022/10/31 05:13:08;;;;;;;14.70;6.47;;;;;;;9.21;100.00;96684.75;5025669;28;20029;-77
2022/10/31 05:16:03;;;;;;;11.93;6.23;;;;;;;9.18;100.00;96685.03;5027362;28;20040;-77
2022/10/31 05:18:47;;;;;;;15.13;6.30;;;;;;;9.20;100.00;96682.28;5030244;28;20048;-77
2022/10/31 05:21:33;;;;;;;12.83;6.00;;;;;;;9.17;100.00;96682.56;5009963;28;20046;-77
2022/10/31 05:24:01;;;;;;;20.83;8.27;;;;;;;9.12;100.00;96680.38;5010596;28;20042;-77
2022/10/31 05:26:27;;;;;;;11.73;6.60;;;;;;;9.08;100.00;96678.97;5001838;28;20026;-77
2022/10/31 05:28:54;;;;;;;17.27;6.70;;;;;;;9.02;100.00;96676.91;5022469;28;20037;-77
2022/10/31 05:31:20;;;;;;;11.30;5.87;;;;;;;9.05;100.00;96674.00;5009802;28;20037;-77
2022/10/31 05:33:47;;;;;;;12.33;5.50;;;;;;;9.05;100.00;96668.75;5025245;28;20103;-77
2022/10/31 05:36:31;;;;;;;14.57;6.63;;;;;;;9.01;100.00;96672.63;5020068;28;20457;-77
2022/10/31 05:38:59;;;;;;;13.87;6.80;;;;;;;9.00;100.00;96668.34;5040597;28;20080;-77
2022/10/31 05:41:33;;;;;;;14.30;6.73;;;;;;;8.94;100.00;96671.53;5025260;28;20018;-77
2022/10/31 05:44:13;;;;;;;13.00;6.33;;;;;;;9.03;100.00;96660.19;5028368;28;20041;-77
2022/10/31 05:46:51;;;;;;;14.10;6.57;;;;;;;9.04;100.00;96663.66;5025740;28;20567;-77
2022/10/31 05:49:17;;;;;;;19.00;7.60;;;;;;;9.08;100.00;96668.47;5028680;28;20056;-77
2022/10/31 05:52:01;;;;;;;14.60;6.80;;;;;;;9.07;100.00;96660.75;5025574;28;20048;-77
2022/10/31 05:54:36;;;;;;;16.77;7.20;;;;;;;9.02;100.00;96661.19;5036738;28;20033;-77
2022/10/31 05:57:02;;;;;;;14.93;6.80;;;;;;;8.96;100.00;96656.47;5033363;28;20041;-76
2022/10/31 05:59:28;;;;;;;17.00;7.20;;;;;;;8.93;100.00;96651.50;5035208;28;20134;-76
2022/10/31 06:01:54;;;;;;;20.13;7.47;;;;;;;8.95;100.00;96645.16;5008596;28;20038;-78
2022/10/31 06:04:42;;;;;;;13.77;7.07;;;;;;;8.98;100.00;96654.53;5022184;28;20510;-77
2022/10/31 06:07:08;;;;;;;14.97;7.70;;;;;;;8.99;100.00;96653.59;5028927;28;20033;-77
2022/10/31 06:09:34;;;;;;;17.63;8.47;;;;;;;8.90;100.00;96650.00;5017733;28;20037;-76
2022/10/31 06:11:59;;;;;;;17.27;7.50;;;;;;;8.98;100.00;96654.53;5022108;28;20620;-77
2022/10/31 06:14:25;;;;;;;13.77;8.23;;;;;;;9.03;100.00;96649.72;5023721;28;20037;-77
2022/10/31 06:16:56;;;;;;;20.70;11.50;;;;;;;9.05;100.00;96655.63;5017042;28;20029;-78
2022/10/31 06:19:42;;;;;;;22.20;12.50;;;;;;;9.16;100.00;96654.69;5009694;28;20514;-77
2022/10/31 06:22:11;;;;;;;17.83;8.27;;;;;;;9.21;100.00;96655.88;5019053;28;20038;-76
2022/10/31 06:24:38;;;;;;;12.60;6.90;;;;;;;9.26;100.00;96650.25;5023181;28;20371;-77
2022/10/31 06:27:21;;;;;;;12.37;6.73;;;;;;;9.27;100.00;96654.50;5026621;28;20077;-77
2022/10/31 06:29:47;;;;;;;14.40;6.40;;;;;;;9.34;100.00;96649.53;5017482;28;20038;-76
2022/10/31 06:32:21;;;;;;;14.90;8.07;;;;;;;9.41;100.00;96648.00;5009733;28;20029;-77
2022/10/31 06:34:50;;;;;;;16.33;7.13;;;;;;;9.53;100.00;96644.25;5028679;28;20542;-77
2022/10/31 06:37:15;;;;;;;15.33;6.20;;;;;;;9.63;100.00;96642.41;5025191;28;20026;-77
2022/10/31 06:39:44;;;;;;;14.90;6.30;;;;;;;9.78;100.00;96644.56;5044945;28;20382;-77
2022/10/31 06:42:12;;;;;;;14.10;5.97;;;;;;;9.83;100.00;96639.72;5031863;28;20124;-77
2022/10/31 06:44:38;;;;;;;16.43;6.20;;;;;;;10.02;100.00;96630.91;5031845;28;20120;-77
2022/10/31 06:47:22;;;;;;;12.17;5.80;;;;;;;10.09;100.00;96635.44;5032740;28;20056;-77
2022/10/31 06:50:06;;;;;;;14.20;5.45;;;;;;;10.29;100.00;96632.72;5032704;28;20045;-77
2022/10/31 06:52:31;;;;;;;9.50;5.37;;;;;;;10.38;100.00;96632.66;5048504;28;20034;-77
2022/10/31 06:54:57;;;;;;;11.93;6.03;;;;;;;10.54;100.00;96634.66;5031806;28;20516;-76
2022/10/31 06:57:23;;;;;;;10.20;6.07;;;;;;;10.72;100.00;96637.28;5031067;28;20029;-76
2022/10/31 06:59:49;;;;;;;13.03;5.87;;;;;;;10.84;100.00;96628.19;5031484;28;20025;-77
2022/10/31 07:02:37;;;;;;;10.57;4.57;;;;;;;10.82;100.00;96634.56;5028908;28;20083;-77
2022/10/31 07:05:04;;;;;;;11.27;5.03;;;;;;;10.91;100.00;96628.41;5031676;28;20112;-77
2022/10/31 07:07:30;;;;;;;12.93;4.80;;;;;;;11.15;100.00;96632.22;5014822;28;20495;-77
2022/10/31 07:09:55;;;;;;;12.33;6.43;;;;;;;11.20;100.00;96632.56;5014500;28;20116;-77
2022/10/31 07:12:36;;;;;;;12.20;4.90;;;;;;;11.53;100.00;96628.34;5031097;28;20057;-76
2022/10/31 07:15:04;;;;;;;14.50;4.80;;;;;;;11.74;100.00;96623.56;5030870;28;20116;-77
2022/10/31 07:17:30;;;;;;;11.17;4.40;;;;;;;12.15;100.00;96615.84;5030559;28;20137;-77
2022/10/31 07:19:58;;;;;;;14.13;5.57;;;;;;;11.73;100.00;96615.78;5031166;28;20036;-77
2022/10/31 07:22:31;;;;;;;11.67;5.60;;;;;;;11.83;100.00;96616.50;5014192;28;20041;-77
2022/10/31 07:24:57;;;;;;;16.23;6.07;;;;;;;12.25;100.00;96613.09;5014477;28;20033;-77
2022/10/31 07:27:42;;;;;;;13.90;5.23;;;;;;;12.37;100.00;96613.59;5032227;28;20044;-77
2022/10/31 07:30:11;;;;;;;13.53;5.47;;;;;;;12.30;100.00;96610.78;5030675;28;20087;-76
2022/10/31 07:32:43;;;;;;;14.93;5.23;;;;;;;12.63;100.00;96609.03;5014615;28;20045;-77
2022/10/31 07:35:15;;;;;;;10.03;4.37;;;;;;;13.30;100.00;96598.34;5030502;28;20044;-77
2022/10/31 07:37:45;;;;;;;;;;;;;;;13.40;100.00;96604.28;5015181;28;20037;-77
2022/10/31 07:40:13;;;;;;;11.83;4.97;;;;;;;13.42;100.00;96606.78;5014731;28;20294;-77
2022/10/31 07:42:41;;;;;;;12.00;4.20;;;;;;;13.93;100.00;96604.66;5030476;28;20041;-77
2022/10/31 07:45:26;;;;;;;9.57;3.50;;;;;;;14.32;100.00;96598.53;5027430;28;20457;-77
2022/10/31 07:48:23;;;;;;;10.53;4.70;;;;;;;14.87;100.00;96586.94;5025509;28;20044;-78
2022/10/31 07:51:07;;;;;;;11.80;4.13;;;;;;;15.25;100.00;96586.94;5031384;28;20056;-79
2022/10/31 07:53:52;;;;;;;10.97;4.20;;;;;;;15.36;100.00;96588.34;5032056;28;20525;-77
2022/10/31 07:56:23;;;;;;;9.60;4.50;;;;;;;16.03;100.00;96585.66;5030578;28;20040;-77
2022/10/31 07:58:49;;;;;;;11.17;4.17;;;;;;;16.39;100.00;96587.50;5010384;28;20407;-77
2022/10/31 08:01:14;;;;;;;8.33;3.57;;;;;;;15.97;100.00;96586.41;5022548;28;20064;-77
2022/10/31 08:03:47;;;;;;;;;;;;;;;15.65;100.00;96584.91;5029479;28;20538;-77
2022/10/31 08:06:32;;;;;;;12.05;3.88;;;;;;;16.06;100.00;96589.75;5027751;28;19960;-77
2022/10/31 08:09:15;;;;;;;10.30;3.90;;;;;;;15.63;100.00;96587.75;5009881;28;20426;-77
2022/10/31 08:11:43;;;;;;;10.55;4.28;;;;;;;16.58;100.00;96580.78;5011491;28;20034;-77
2022/10/31 08:14:08;;;;;;;12.45;4.20;;;;;;;16.66;100.00;96581.47;5017930;28;20449;-77
2022/10/31 08:16:34;;;;;;;10.70;4.90;;;;;;;16.76;100.00;96575.06;5013499;28;20040;-77
2022/10/31 08:19:03;;;;;;;15.57;4.45;;;;;;;16.60;100.00;96574.28;5030147;28;20832;-77
2022/10/31 08:21:33;;;;;;;9.93;4.28;;;;;;;17.06;100.00;96568.59;5029910;28;20124;-77
2022/10/31 08:23:59;;;;;;;10.07;4.70;;;;;;;16.96;100.00;96573.41;5030213;28;20421;-77
2022/10/31 08:26:25;;;;;;;9.55;3.85;;;;;;;17.03;100.00;96568.97;5030204;28;20025;-77
2022/10/31 08:28:54;;;;;;;11.88;4.10;;;;;;;17.33;100.00;96563.47;5029893;28;20171;-77
2022/10/31 08:31:21;;;;;;;11.65;5.03;;;;;;;16.90;100.00;96566.19;5030056;28;20059;-77
2022/10/31 08:34:10;;;;;;;14.52;6.18;;;;;;;16.03;100.00;96575.06;5039185;28;20041;-77
2022/10/31 08:37:02;;;;;;;11.15;5.63;;;;;;;16.16;100.00;96569.91;5029874;28;20041;-77
2022/10/31 08:39:35;;;;;;;10.77;5.07;;;;;;;16.64;100.00;96564.91;5029941;28;20029;-77
2022/10/31 08:42:01;;;;;;;9.00;4.03;;;;;;;16.38;100.00;96567.28;5031092;28;20033;-77
2022/10/31 08:44:27;;;;;;;13.02;4.50;;;;;;;16.24;100.00;96563.66;5029512;28;20033;-77
2022/10/31 08:46:53;;;;;;;11.90;4.20;;;;;;;16.12;100.00;96565.16;5028866;28;20448;-77
2022/10/31 08:49:21;;;;;;;10.70;4.20;;;;;;;16.60;100.00;96563.66;5029206;28;20095;-77
2022/10/31 08:51:48;;;;;;;9.18;4.32;;;;;;;16.33;100.00;96567.88;5013314;28;20033;-77
2022/10/31 08:54:14;;;;;;;12.32;4.30;;;;;;;16.39;100.00;96560.97;5013166;28;20037;-77
2022/10/31 08:56:53;;;;;;;8.95;4.82;;;;;;;16.57;100.00;96557.91;5029632;28;20048;-77
2022/10/31 08:59:48;;;;;;;11.20;4.75;;;;;;;16.85;100.00;96555.34;5033058;28;20422;-77
2022/10/31 09:02:13;;;;;;;9.70;4.32;;;;;;;17.10;100.00;96553.09;5029590;28;20038;-77
2022/10/31 09:04:39;;;;;;;14.02;5.85;;;;;;;16.99;100.00;96551.78;5028985;28;20536;-77
2022/10/31 09:07:05;;;;;;;15.60;5.22;;;;;;;16.22;100.00;96560.38;5028577;28;20057;-77
2022/10/31 09:09:31;;;;;;;9.32;4.93;;;;;;;16.58;100.00;96557.69;5028750;28;20087;-77
2022/10/31 09:11:56;;;;;;;9.40;4.60;;;;;;;17.00;100.00;96548.13;5030165;28;20486;-77
2022/10/31 09:14:41;;;;;;;14.55;6.22;;;;;;;17.04;100.00;96548.56;5030579;28;20514;-77
2022/10/31 09:17:26;;;;;;;12.13;5.95;;;;;;;16.99;100.00;96546.47;5010859;28;20092;-77
2022/10/31 09:20:15;;;;;;;17.42;5.85;;;;;;;17.07;100.00;96549.00;5022124;28;20052;-77
2022/10/31 09:22:41;;;;;;;13.73;5.93;;;;;;;16.90;100.00;96552.91;5009015;28;20025;-78
2022/10/31 09:25:07;;;;;;;10.90;6.03;;;;;;;17.15;100.00;96540.88;5009610;28;20080;-77
2022/10/31 09:27:33;;;;;;;9.98;4.78;;;;;;;17.06;100.00;96538.53;5025613;28;20034;-77
2022/10/31 09:30:00;;;;;;;11.88;5.07;;;;;;;16.96;100.00;96546.84;5009288;28;20398;-77
2022/10/31 09:32:26;;;;;;;8.82;4.40;;;;;;;17.28;100.00;96539.34;5009599;28;20498;-78
2022/10/31 09:34:51;;;;;;;10.80;5.10;;;;;;;17.13;100.00;96542.06;5021227;28;20033;-78
2022/10/31 09:37:20;;;;;;;12.65;4.55;;;;;;;17.26;100.00;96541.34;5030108;28;20063;-77
2022/10/31 09:39:45;;;;;;;14.40;5.20;;;;;;;17.65;100.00;96540.81;5029101;28;20045;-77
2022/10/31 09:42:25;;;;;;;13.05;5.50;;;;;;;17.29;100.00;96544.44;5030325;28;20069;-77
2022/10/31 09:45:04;;;;;;;12.88;5.55;;;;;;;17.72;100.00;96538.19;5029196;28;20041;-77
2022/10/31 09:48:18;;;;;;;10.85;4.72;;;;;;;17.99;100.00;96537.31;5028294;28;20045;-77
2022/10/31 09:51:12;;;;;;;17.88;5.93;;;;;;;18.03;100.00;96537.72;5032061;28;20510;-77
2022/10/31 09:53:58;;;;;;;15.55;5.25;;;;;;;18.16;100.00;96534.31;5029966;28;20110;-77
2022/10/31 09:56:26;;;;;;;12.75;5.90;;;;;;;18.31;100.00;96532.31;5028775;28;20037;-77
2022/10/31 09:58:59;;;;;;;13.32;5.70;;;;;;;18.15;100.00;96538.81;5028562;28;20038;-77
2022/10/31 10:01:43;;;;;;;13.25;5.90;;;;;;;18.79;100.00;96532.22;5028958;28;20094;-77
2022/10/31 10:04:27;;;;;;;13.23;6.05;;;;;;;19.00;100.00;96534.69;5009308;28;20065;-77
2022/10/31 10:07:24;;;;;;;11.90;6.57;;;;;;;19.75;100.00;96519.25;5010818;28;20051;-77
2022/10/31 10:09:53;;;;;;;14.20;6.57;;;;;;;19.77;100.00;96519.03;5012037;28;20108;-77
2022/10/31 10:12:59;;;;;;;12.13;5.82;;;;;;;19.76;100.00;96518.22;5029972;28;20450;-77
2022/10/31 10:15:34;;;;;;;11.30;5.68;;;;;;;20.53;100.00;96517.50;5033901;28;20133;-78
2022/10/31 10:18:11;;;;;;;16.25;5.57;;;;;;;20.42;100.00;96511.78;5032273;28;20029;-78
2022/10/31 10:20:37;;;;;;;12.77;5.80;;;;;;;20.38;100.00;96513.22;5033047;28;20033;-77
2022/10/31 10:23:31;;;;;;;16.08;6.43;;;;;;;20.32;100.00;96508.75;5011643;28;20037;-78
2022/10/31 10:26:12;;;;;;;14.52;6.72;;;;;;;20.45;100.00;96505.97;5042327;28;20046;-78
2022/10/31 10:28:41;;;;;;;14.68;5.70;;;;;;;20.66;100.00;96502.19;5031882;28;20052;-77
2022/10/31 10:31:15;;;;;;;12.60;5.78;;;;;;;21.03;100.00;96488.16;5032736;28;20037;-78
2022/10/31 10:34:05;;;;;;;15.90;7.03;;;;;;;20.78;100.00;96496.97;5032568;28;20072;-78
2022/10/31 10:36:44;;;;;;;11.10;6.05;;;;;;;21.50;100.00;96485.88;5013370;28;20113;-78
2022/10/31 10:39:17;;;;;;;12.93;6.70;;;;;;;21.74;100.00;96486.84;5019613;28;20113;-78
2022/10/31 10:41:47;;;;;;;15.05;5.97;;;;;;;21.42;100.00;96482.44;5032666;28;20037;-78
2022/10/31 10:44:15;;;;;;;17.05;6.80;;;;;;;20.93;100.00;96485.97;5032192;28;20025;-78
2022/10/31 10:49:44;;;;;;;10.23;5.40;;;;;;;20.89;100.00;96480.25;5012999;28;20041;-77
2022/10/31 10:52:10;;;;;;;12.88;5.80;;;;;;;20.93;100.00;96481.44;5023980;28;20044;-78
2022/10/31 10:54:38;;;;;;;14.65;5.85;;;;;;;21.77;100.00;96475.69;5031562;28;20037;-78
2022/10/31 10:57:29;;;;;;;11.88;6.15;;;;;;;21.82;100.00;96479.31;5031800;28;20062;-78
2022/10/31 10:59:55;;;;;;;15.88;6.00;;;;;;;21.11;100.00;96474.50;5023946;28;20045;-78
2022/10/31 11:02:29;;;;;;;15.07;6.32;;;;;;;21.63;100.00;96473.19;5012404;28;20028;-78
2022/10/31 11:04:58;;;;;;;13.52;6.75;;;;;;;22.00;100.00;96469.63;5038136;28;20616;-78
2022/10/31 11:07:23;;;;;;;12.60;6.70;;;;;;;22.33;100.00;96462.03;5031590;28;20033;-78
2022/10/31 11:09:50;;;;;;;15.77;6.10;;;;;;;22.11;100.00;96458.19;5018605;28;20416;-78
2022/10/31 11:12:26;;;;;;;18.77;6.38;;;;;;;21.85;100.00;96462.81;5017527;28;20025;-78
2022/10/31 11:14:59;;;;;;;14.13;6.18;;;;;;;22.51;100.00;96454.97;5031524;28;20395;-78
2022/10/31 11:17:25;;;;;;;14.55;7.22;;;;;;;22.69;100.00;96444.16;5031447;28;20077;-78
2022/10/31 11:20:22;;;;;;;13.52;6.40;;;;;;;22.79;100.00;96446.28;5032177;28;20618;-78
2022/10/31 11:22:48;;;;;;;16.33;6.60;;;;;;;22.54;100.00;96446.47;5032432;28;20033;-78
2022/10/31 11:25:25;;;;;;;13.18;6.47;;;;;;;21.72;100.00;96448.78;5030593;28;20033;-78
2022/10/31 11:28:05;;;;;;;11.48;5.90;;;;;;;21.80;100.00;96445.81;5031446;28;20029;-78
2022/10/31 11:30:42;;;;;;;13.25;6.35;;;;;;;21.28;100.00;96434.63;5031583;28;20039;-78
2022/10/31 11:33:40;;;;;;;20.15;6.50;;;;;;;21.82;100.00;96436.50;5032923;28;20098;-78
2022/10/31 11:36:25;;;;;;;17.20;6.60;;;;;;;21.76;100.00;96440.06;5031313;28;20135;-78
2022/10/31 11:38:52;;;;;;;20.10;7.82;;;;;;;21.47;100.00;96438.16;5032241;28;20045;-78
2022/10/31 11:41:31;;;;;;;15.80;7.57;;;;;;;21.50;100.00;96443.06;5015119;28;20078;-78
2022/10/31 11:44:17;;;;;;;14.45;8.18;;;;;;;21.20;100.00;96441.09;5031488;28;20123;-78
2022/10/31 11:46:47;;;;;;;12.45;6.18;;;;;;;21.64;100.00;96433.84;5031182;28;20158;-77
2022/10/31 11:49:37;;;;;;;16.38;6.75;;;;;;;21.51;100.00;96424.09;5031886;28;20048;-78
2022/10/31 11:52:13;;;;;;;12.90;7.00;;;;;;;21.12;100.00;96425.31;5032266;28;20034;-78